Terminal Aerodrome Forecast
Issued by NWS

Home | Current Version | Previous Version | Text Only | Print | Product List | Glossary Off
Versions: 1 2 3 4 5 6 7 8 9 10 11 12 13 14 15 16 17 18 19 20 21 22 23 24 25 26 27 28

000
FTUS43 KICT 211339 AAA
TAFSLN
TAF AMD
KSLN 211339Z 2114/2212 08005KT 2SM BR SCT003 BKN020
      TEMPO 2114/2115 1/2SM FZFG BKN003
     FM211500 18007KT 5SM BR BKN015
     FM212300 30009KT P6SM VCSH BKN020
     FM220200 31008KT 5SM BR VCSH BKN008=

USA.gov is the U.S. government's official web portal to all federal, state and local government web resources and services.